White Haven, PA (18661)

8:12 PM EDT on July 07, 2015 (GMT -0400)
Hickory Hills | | Change Station
CLOSE
Current Station
Personal Weather Station
Location: White Haven, PA
Elevation: 1476 ft
Nearby Weather Stations

Elev 1476 ft 41.03 °N, 75.82 °W | Updated 1 minute ago

Overcast
Overcast
74.2 °F
Feels Like 74 °F
N
0.0
Wind Variable Wind from South
Gusts 0.0 mph

Today
High -- | Low -- °F
--% Chance of Precip.
Yesterday
High -- | Low -- °F
Precip. -- in
5:37 AM 8:37 PM
Waning Gibbous, 60% visible
Pressure 29.93 in
Visibility 6.0 miles
Clouds Clear
Heat Index 74 °F
Dew Point 69 °F
Humidity 83%
Rainfall 0.45 in
Snow Depth Not available.
UV 0 out of 12
Pollen .90 out of 12
Air Quality Not available.
Flu Activity Not available.
METAR KAVP 072354Z AUTO 20004KT 6SM HZ CLR 27/19 A2996 RMK AO2 SLP134 T02720189 10294 20272 55000

More Conditions Fewer Conditions

Pressure 29.93 in
Visibility 6.0 miles
Clouds Clear
Heat Index 74 °F
Dew Point 69 °F
Humidity 83%
Rainfall 0.45 in
Snow Depth Not available.
UV 0 out of 12
Pollen .90 out of 12
Air Quality Not available.
Flu Activity Not available.
METAR KAVP 072354Z AUTO 20004KT 6SM HZ CLR 27/19 A2996 RMK AO2 SLP134 T02720189 10294 20272 55000

More Conditions Fewer Conditions

10-Day Weather Forecast

×

Almanac

Astronomy

Jul. 07, 2015 Rise Set
Actual Time
Civil Twilight
Nautical Twilight
Astronomical Twilight
Moon
Length of Visible Light
Length of Day
Tomorrow will be .
, % of the Moon is Illuminated

Today's Extremes

State Highs State Lows

Community

WunderPhotos

Upload Photos

1,835,970 photos uploaded!

WunderBlogs® & News

Nearby

Air Quality

  Air Quality AQ Index Pollutant
Not available.

Snow Depth

Station Depth Elevation

Earthquake Activity

City Distance Mag. Time & Date
Minimum magnitude displayed is 2.5.

Coastal Water Temperatures

Place Temperature

Stations

Nearby Weather Stations

Station Location Temp. Windchill Dew Point Humidity Wind Precip. Elev Updated Type